Kalmar, Sweden

5:24 PM CEST on August 31, 2015 (GMT +0200)
ILNKALMA2 | | Change Station
CLOSE
Current Station
Personal Weather Station
Location: Kalmar, Djurangen, Kalmar Lan
Elevation: 23 ft
Nearby Weather Stations

Elev 23 ft 56.69 °N, 16.33 °E | Updated 12 seconds ago

Mostly Cloudy
Mostly Cloudy
63.7 °F
Feels Like 63.7 °F
N
0.0
Wind Variable Wind from NNE
Gusts 0.0 mph

Today
High -- | Low -- °F
--% Chance of Precip.
Yesterday
High -- | Low -- °F
Precip. -- in
5:54 AM 7:54 PM
Waning Gibbous, 95% visible
Pressure 30.01 in
Visibility 6.2 miles
Clouds Mostly Cloudy 5000 ft
Dew Point 57 °F
Humidity 79%
Rainfall 0.02 in
Snow Depth Not available.
UV 1 out of 12
Pollen Not available.
Air Quality Not available.
Flu Activity Not available.
METAR ESMQ 311450Z 10005KT 9999 BKN050 18/15 Q1016
Pressure 30.01 in
Visibility 6.2 miles
Clouds Mostly Cloudy 5000 ft
Dew Point 57 °F
Humidity 79%
Rainfall 0.02 in
Snow Depth Not available.
UV 1 out of 12
Pollen Not available.
Air Quality Not available.
Flu Activity Not available.
METAR ESMQ 311450Z 10005KT 9999 BKN050 18/15 Q1016

10-Day Weather Forecast

×

Almanac

Astronomy

Aug. 31, 2015 Rise Set
Actual Time
Civil Twilight
Nautical Twilight
Astronomical Twilight
Moon
Length of Visible Light
Length of Day
Tomorrow will be .
, % of the Moon is Illuminated

Today's Extremes

Country Highs Country Lows

Community

WunderPhotos

Upload Photos

1,851,281 photos uploaded!

WunderBlogs® & News

Nearby

Air Quality

  Air Quality AQ Index Pollutant
Not available.

Snow Depth

Station Depth Elevation

Earthquake Activity

City Distance Mag. Time & Date
Minimum magnitude displayed is 2.5.

Coastal Water Temperatures

Place Temperature

Stations

Nearby Weather Stations

Station Location Temp. Windchill Dew Point Humidity Wind Precip. Elev Updated Type